sensor_id;sensor_type;location;lat;lon;timestamp;P1;durP1;ratioP1;P2;durP2;ratioP2
3267;SDS011;1646;52.450;13.326;2023-02-18T00:01:44;9.37;;;2.37;;
3267;SDS011;1646;52.450;13.326;2023-02-18T00:06:43;9.60;;;2.10;;
3267;SDS011;1646;52.450;13.326;2023-02-18T00:11:42;15.30;;;2.90;;
3267;SDS011;1646;52.450;13.326;2023-02-18T00:16:41;15.77;;;2.83;;
3267;SDS011;1646;52.450;13.326;2023-02-18T00:21:40;9.87;;;2.27;;
3267;SDS011;1646;52.450;13.326;2023-02-18T00:26:38;16.83;;;2.43;;
3267;SDS011;1646;52.450;13.326;2023-02-18T00:31:38;22.97;;;2.67;;
3267;SDS011;1646;52.450;13.326;2023-02-18T00:36:38;14.13;;;3.60;;
3267;SDS011;1646;52.450;13.326;2023-02-18T00:41:36;11.93;;;2.73;;
3267;SDS011;1646;52.450;13.326;2023-02-18T00:46:35;12.83;;;2.90;;
3267;SDS011;1646;52.450;13.326;2023-02-18T00:51:36;13.33;;;2.73;;
3267;SDS011;1646;52.450;13.326;2023-02-18T00:56:34;14.17;;;2.80;;
3267;SDS011;1646;52.450;13.326;2023-02-18T01:01:33;13.37;;;3.33;;
3267;SDS011;1646;52.450;13.326;2023-02-18T01:06:31;8.70;;;2.10;;
3267;SDS011;1646;52.450;13.326;2023-02-18T01:11:32;7.57;;;2.20;;
3267;SDS011;1646;52.450;13.326;2023-02-18T01:16:31;7.80;;;2.13;;
3267;SDS011;1646;52.450;13.326;2023-02-18T01:21:29;15.97;;;2.30;;
3267;SDS011;1646;52.450;13.326;2023-02-18T01:26:27;14.07;;;2.60;;
3267;SDS011;1646;52.450;13.326;2023-02-18T01:31:27;7.97;;;2.33;;
3267;SDS011;1646;52.450;13.326;2023-02-18T01:36:27;18.47;;;2.97;;
3267;SDS011;1646;52.450;13.326;2023-02-18T01:41:25;9.60;;;2.63;;
3267;SDS011;1646;52.450;13.326;2023-02-18T01:46:24;17.97;;;1.87;;
3267;SDS011;1646;52.450;13.326;2023-02-18T01:51:24;15.97;;;2.20;;
3267;SDS011;1646;52.450;13.326;2023-02-18T01:56:26;11.40;;;2.40;;
3267;SDS011;1646;52.450;13.326;2023-02-18T02:01:27;9.93;;;2.00;;
3267;SDS011;1646;52.450;13.326;2023-02-18T02:06:27;8.00;;;1.83;;
3267;SDS011;1646;52.450;13.326;2023-02-18T02:11:29;11.93;;;2.70;;
3267;SDS011;1646;52.450;13.326;2023-02-18T02:16:52;9.83;;;2.33;;
3267;SDS011;1646;52.450;13.326;2023-02-18T02:22:25;15.83;;;2.03;;
3267;SDS011;1646;52.450;13.326;2023-02-18T02:28:07;12.83;;;2.20;;
3267;SDS011;1646;52.450;13.326;2023-02-18T02:33:33;22.03;;;2.50;;
3267;SDS011;1646;52.450;13.326;2023-02-18T02:38:49;13.73;;;2.30;;
3267;SDS011;1646;52.450;13.326;2023-02-18T02:43:55;11.93;;;2.03;;
3267;SDS011;1646;52.450;13.326;2023-02-18T02:49:11;12.57;;;2.03;;
3267;SDS011;1646;52.450;13.326;2023-02-18T02:54:18;9.43;;;1.70;;
3267;SDS011;1646;52.450;13.326;2023-02-18T02:59:20;13.73;;;2.17;;
3267;SDS011;1646;52.450;13.326;2023-02-18T03:09:54;6.70;;;1.57;;
3267;SDS011;1646;52.450;13.326;2023-02-18T03:15:07;8.63;;;2.20;;
3267;SDS011;1646;52.450;13.326;2023-02-18T03:20:15;10.63;;;1.73;;
3267;SDS011;1646;52.450;13.326;2023-02-18T03:25:21;11.57;;;1.37;;
3267;SDS011;1646;52.450;13.326;2023-02-18T03:30:22;13.17;;;2.13;;
3267;SDS011;1646;52.450;13.326;2023-02-18T03:35:23;13.33;;;1.60;;
3267;SDS011;1646;52.450;13.326;2023-02-18T03:40:24;7.70;;;1.70;;
3267;SDS011;1646;52.450;13.326;2023-02-18T03:45:24;11.30;;;1.93;;
3267;SDS011;1646;52.450;13.326;2023-02-18T03:50:22;7.23;;;1.60;;
3267;SDS011;1646;52.450;13.326;2023-02-18T03:55:21;11.63;;;1.70;;
3267;SDS011;1646;52.450;13.326;2023-02-18T04:00:21;5.13;;;1.30;;
3267;SDS011;1646;52.450;13.326;2023-02-18T04:05:19;9.27;;;1.73;;
3267;SDS011;1646;52.450;13.326;2023-02-18T04:10:18;10.07;;;1.60;;
3267;SDS011;1646;52.450;13.326;2023-02-18T04:15:18;6.60;;;1.50;;
3267;SDS011;1646;52.450;13.326;2023-02-18T04:20:18;5.30;;;1.57;;
3267;SDS011;1646;52.450;13.326;2023-02-18T04:25:18;7.70;;;1.53;;
3267;SDS011;1646;52.450;13.326;2023-02-18T04:30:16;8.60;;;1.43;;
3267;SDS011;1646;52.450;13.326;2023-02-18T04:35:15;11.70;;;1.77;;
3267;SDS011;1646;52.450;13.326;2023-02-18T04:40:15;4.40;;;1.73;;
3267;SDS011;1646;52.450;13.326;2023-02-18T04:45:13;10.20;;;1.30;;
3267;SDS011;1646;52.450;13.326;2023-02-18T04:50:11;8.33;;;2.00;;
3267;SDS011;1646;52.450;13.326;2023-02-18T04:55:10;9.00;;;1.60;;
3267;SDS011;1646;52.450;13.326;2023-02-18T05:00:11;6.50;;;1.60;;
3267;SDS011;1646;52.450;13.326;2023-02-18T05:05:12;12.23;;;1.80;;
3267;SDS011;1646;52.450;13.326;2023-02-18T05:10:14;4.70;;;1.03;;
3267;SDS011;1646;52.450;13.326;2023-02-18T05:15:15;8.00;;;1.60;;
3267;SDS011;1646;52.450;13.326;2023-02-18T05:20:14;9.07;;;1.80;;
3267;SDS011;1646;52.450;13.326;2023-02-18T05:25:12;13.23;;;3.00;;
3267;SDS011;1646;52.450;13.326;2023-02-18T05:30:10;5.57;;;1.20;;
3267;SDS011;1646;52.450;13.326;2023-02-18T05:35:10;10.33;;;1.90;;
3267;SDS011;1646;52.450;13.326;2023-02-18T05:40:09;8.60;;;1.70;;
3267;SDS011;1646;52.450;13.326;2023-02-18T05:45:08;8.90;;;2.07;;
3267;SDS011;1646;52.450;13.326;2023-02-18T05:50:07;7.97;;;1.80;;
3267;SDS011;1646;52.450;13.326;2023-02-18T05:55:07;16.40;;;2.00;;
3267;SDS011;1646;52.450;13.326;2023-02-18T06:00:05;5.33;;;1.47;;
3267;SDS011;1646;52.450;13.326;2023-02-18T06:05:06;6.40;;;2.13;;
3267;SDS011;1646;52.450;13.326;2023-02-18T06:10:06;5.33;;;1.30;;
3267;SDS011;1646;52.450;13.326;2023-02-18T06:15:05;3.87;;;1.40;;
3267;SDS011;1646;52.450;13.326;2023-02-18T06:20:04;7.03;;;1.90;;
3267;SDS011;1646;52.450;13.326;2023-02-18T06:25:04;5.90;;;1.30;;
3267;SDS011;1646;52.450;13.326;2023-02-18T06:30:04;8.30;;;1.80;;
3267;SDS011;1646;52.450;13.326;2023-02-18T06:35:04;9.53;;;1.50;;
3267;SDS011;1646;52.450;13.326;2023-02-18T06:40:03;7.73;;;1.47;;
3267;SDS011;1646;52.450;13.326;2023-02-18T06:45:04;3.60;;;1.30;;
3267;SDS011;1646;52.450;13.326;2023-02-18T06:50:03;3.93;;;1.33;;
3267;SDS011;1646;52.450;13.326;2023-02-18T06:55:03;2.10;;;0.93;;
3267;SDS011;1646;52.450;13.326;2023-02-18T07:00:02;2.00;;;0.90;;
3267;SDS011;1646;52.450;13.326;2023-02-18T07:05:03;6.23;;;1.10;;
3267;SDS011;1646;52.450;13.326;2023-02-18T07:10:02;13.03;;;1.00;;
3267;SDS011;1646;52.450;13.326;2023-02-18T07:15:01;3.73;;;1.33;;
3267;SDS011;1646;52.450;13.326;2023-02-18T07:20:00;5.93;;;1.20;;
3267;SDS011;1646;52.450;13.326;2023-02-18T07:25:00;2.17;;;1.10;;
3267;SDS011;1646;52.450;13.326;2023-02-18T07:29:58;4.53;;;1.10;;
3267;SDS011;1646;52.450;13.326;2023-02-18T07:34:57;5.13;;;0.90;;
3267;SDS011;1646;52.450;13.326;2023-02-18T07:39:56;6.30;;;1.13;;
3267;SDS011;1646;52.450;13.326;2023-02-18T07:44:55;3.70;;;1.13;;
3267;SDS011;1646;52.450;13.326;2023-02-18T07:49:53;3.67;;;1.20;;
3267;SDS011;1646;52.450;13.326;2023-02-18T07:54:51;9.83;;;1.50;;
3267;SDS011;1646;52.450;13.326;2023-02-18T07:59:51;10.07;;;1.20;;
3267;SDS011;1646;52.450;13.326;2023-02-18T08:04:49;2.13;;;1.10;;
3267;SDS011;1646;52.450;13.326;2023-02-18T08:09:48;3.30;;;1.40;;
3267;SDS011;1646;52.450;13.326;2023-02-18T08:14:47;4.20;;;1.10;;
3267;SDS011;1646;52.450;13.326;2023-02-18T08:19:48;7.40;;;1.93;;
3267;SDS011;1646;52.450;13.326;2023-02-18T08:24:46;6.30;;;1.40;;
3267;SDS011;1646;52.450;13.326;2023-02-18T08:29:44;8.17;;;1.60;;
3267;SDS011;1646;52.450;13.326;2023-02-18T08:34:43;8.67;;;2.07;;
3267;SDS011;1646;52.450;13.326;2023-02-18T08:39:43;6.80;;;1.20;;
3267;SDS011;1646;52.450;13.326;2023-02-18T08:44:41;8.13;;;1.50;;
3267;SDS011;1646;52.450;13.326;2023-02-18T08:49:39;7.80;;;1.70;;
3267;SDS011;1646;52.450;13.326;2023-02-18T08:54:38;7.90;;;1.93;;
3267;SDS011;1646;52.450;13.326;2023-02-18T08:59:38;6.63;;;1.87;;
3267;SDS011;1646;52.450;13.326;2023-02-18T09:04:36;7.83;;;1.90;;
3267;SDS011;1646;52.450;13.326;2023-02-18T09:09:34;8.27;;;2.17;;
3267;SDS011;1646;52.450;13.326;2023-02-18T09:14:33;5.73;;;1.70;;
3267;SDS011;1646;52.450;13.326;2023-02-18T09:19:32;15.83;;;2.10;;
3267;SDS011;1646;52.450;13.326;2023-02-18T09:24:35;9.53;;;2.17;;
3267;SDS011;1646;52.450;13.326;2023-02-18T09:29:36;18.77;;;2.53;;
3267;SDS011;1646;52.450;13.326;2023-02-18T09:34:37;7.60;;;2.03;;
3267;SDS011;1646;52.450;13.326;2023-02-18T09:39:35;5.37;;;2.07;;
3267;SDS011;1646;52.450;13.326;2023-02-18T09:44:36;13.63;;;2.50;;
3267;SDS011;1646;52.450;13.326;2023-02-18T09:49:39;8.80;;;2.27;;
3267;SDS011;1646;52.450;13.326;2023-02-18T09:54:41;6.77;;;2.30;;
3267;SDS011;1646;52.450;13.326;2023-02-18T09:59:39;6.67;;;1.97;;
3267;SDS011;1646;52.450;13.326;2023-02-18T10:04:41;6.63;;;2.03;;
3267;SDS011;1646;52.450;13.326;2023-02-18T10:09:41;5.03;;;1.63;;
3267;SDS011;1646;52.450;13.326;2023-02-18T10:14:39;7.60;;;2.20;;
3267;SDS011;1646;52.450;13.326;2023-02-18T10:19:41;10.83;;;2.07;;
3267;SDS011;1646;52.450;13.326;2023-02-18T10:24:43;5.90;;;1.73;;
3267;SDS011;1646;52.450;13.326;2023-02-18T10:29:45;5.57;;;2.30;;
3267;SDS011;1646;52.450;13.326;2023-02-18T10:34:46;12.83;;;3.27;;
3267;SDS011;1646;52.450;13.326;2023-02-18T10:39:52;6.90;;;2.30;;
3267;SDS011;1646;52.450;13.326;2023-02-18T10:44:58;5.53;;;1.90;;
3267;SDS011;1646;52.450;13.326;2023-02-18T10:50:10;5.43;;;1.60;;
3267;SDS011;1646;52.450;13.326;2023-02-18T10:55:10;9.00;;;1.80;;
3267;SDS011;1646;52.450;13.326;2023-02-18T11:00:14;3.10;;;1.90;;
3267;SDS011;1646;52.450;13.326;2023-02-18T11:05:18;3.63;;;2.03;;
3267;SDS011;1646;52.450;13.326;2023-02-18T11:10:21;3.20;;;1.60;;
3267;SDS011;1646;52.450;13.326;2023-02-18T11:15:23;3.83;;;2.03;;
3267;SDS011;1646;52.450;13.326;2023-02-18T11:20:26;3.43;;;1.37;;
3267;SDS011;1646;52.450;13.326;2023-02-18T11:25:27;5.70;;;1.80;;
3267;SDS011;1646;52.450;13.326;2023-02-18T11:30:31;1.60;;;1.50;;
3267;SDS011;1646;52.450;13.326;2023-02-18T11:35:33;2.47;;;1.50;;
3267;SDS011;1646;52.450;13.326;2023-02-18T11:40:32;1.57;;;1.40;;
3267;SDS011;1646;52.450;13.326;2023-02-18T11:45:32;1.83;;;1.33;;
3267;SDS011;1646;52.450;13.326;2023-02-18T11:50:33;2.30;;;1.60;;
3267;SDS011;1646;52.450;13.326;2023-02-18T11:55:32;4.20;;;1.50;;
3267;SDS011;1646;52.450;13.326;2023-02-18T12:00:34;1.90;;;1.33;;
3267;SDS011;1646;52.450;13.326;2023-02-18T12:05:36;2.10;;;1.90;;
3267;SDS011;1646;52.450;13.326;2023-02-18T12:10:37;1.93;;;1.70;;
3267;SDS011;1646;52.450;13.326;2023-02-18T12:15:44;2.00;;;1.90;;
3267;SDS011;1646;52.450;13.326;2023-02-18T12:20:55;2.50;;;2.33;;
3267;SDS011;1646;52.450;13.326;2023-02-18T12:26:08;2.27;;;2.17;;
3267;SDS011;1646;52.450;13.326;2023-02-18T12:31:19;2.13;;;2.03;;
3267;SDS011;1646;52.450;13.326;2023-02-18T12:36:30;2.07;;;1.97;;
3267;SDS011;1646;52.450;13.326;2023-02-18T12:41:37;2.40;;;2.30;;
3267;SDS011;1646;52.450;13.326;2023-02-18T12:47:02;2.60;;;2.40;;
3267;SDS011;1646;52.450;13.326;2023-02-18T12:52:28;1.87;;;1.77;;
3267;SDS011;1646;52.450;13.326;2023-02-18T12:57:37;2.00;;;1.90;;
3267;SDS011;1646;52.450;13.326;2023-02-18T13:02:47;3.40;;;1.90;;
3267;SDS011;1646;52.450;13.326;2023-02-18T13:08:04;2.00;;;1.90;;
3267;SDS011;1646;52.450;13.326;2023-02-18T13:13:15;1.80;;;1.70;;
3267;SDS011;1646;52.450;13.326;2023-02-18T13:18:19;1.40;;;1.40;;
3267;SDS011;1646;52.450;13.326;2023-02-18T13:23:23;1.50;;;1.40;;
3267;SDS011;1646;52.450;13.326;2023-02-18T13:28:28;1.40;;;1.30;;
3267;SDS011;1646;52.450;13.326;2023-02-18T13:33:35;0.80;;;0.80;;
3267;SDS011;1646;52.450;13.326;2023-02-18T13:38:48;1.30;;;1.20;;
3267;SDS011;1646;52.450;13.326;2023-02-18T13:44:05;1.30;;;1.30;;
3267;SDS011;1646;52.450;13.326;2023-02-18T13:49:06;1.50;;;1.33;;
3267;SDS011;1646;52.450;13.326;2023-02-18T13:54:12;1.40;;;1.40;;
3267;SDS011;1646;52.450;13.326;2023-02-18T13:59:19;1.63;;;1.63;;
3267;SDS011;1646;52.450;13.326;2023-02-18T14:09:48;0.97;;;0.97;;
3267;SDS011;1646;52.450;13.326;2023-02-18T14:14:47;1.10;;;1.10;;
3267;SDS011;1646;52.450;13.326;2023-02-18T14:19:52;1.37;;;1.30;;
3267;SDS011;1646;52.450;13.326;2023-02-18T14:24:54;1.40;;;1.30;;
3267;SDS011;1646;52.450;13.326;2023-02-18T14:30:01;1.60;;;1.60;;
3267;SDS011;1646;52.450;13.326;2023-02-18T14:35:05;1.10;;;1.10;;
3267;SDS011;1646;52.450;13.326;2023-02-18T14:40:26;1.40;;;1.30;;
3267;SDS011;1646;52.450;13.326;2023-02-18T14:50:57;1.57;;;1.47;;
3267;SDS011;1646;52.450;13.326;2023-02-18T14:55:58;0.80;;;0.80;;
3267;SDS011;1646;52.450;13.326;2023-02-18T15:01:04;0.90;;;0.90;;
3267;SDS011;1646;52.450;13.326;2023-02-18T15:06:19;0.77;;;0.77;;
3267;SDS011;1646;52.450;13.326;2023-02-18T15:11:28;0.73;;;0.73;;
3267;SDS011;1646;52.450;13.326;2023-02-18T15:16:33;0.80;;;0.80;;
3267;SDS011;1646;52.450;13.326;2023-02-18T15:21:33;0.57;;;0.57;;
3267;SDS011;1646;52.450;13.326;2023-02-18T15:26:36;0.80;;;0.80;;
3267;SDS011;1646;52.450;13.326;2023-02-18T15:31:39;0.63;;;0.60;;
3267;SDS011;1646;52.450;13.326;2023-02-18T15:36:38;0.67;;;0.67;;
3267;SDS011;1646;52.450;13.326;2023-02-18T15:41:37;1.53;;;0.50;;
3267;SDS011;1646;52.450;13.326;2023-02-18T15:46:36;0.70;;;0.60;;
3267;SDS011;1646;52.450;13.326;2023-02-18T15:51:34;1.47;;;0.90;;
3267;SDS011;1646;52.450;13.326;2023-02-18T15:56:34;0.93;;;0.60;;
3267;SDS011;1646;52.450;13.326;2023-02-18T16:01:36;0.90;;;0.90;;
3267;SDS011;1646;52.450;13.326;2023-02-18T16:06:36;1.10;;;0.83;;
3267;SDS011;1646;52.450;13.326;2023-02-18T16:11:36;0.60;;;0.60;;
3267;SDS011;1646;52.450;13.326;2023-02-18T16:16:38;0.60;;;0.60;;
3267;SDS011;1646;52.450;13.326;2023-02-18T16:21:37;0.60;;;0.60;;
3267;SDS011;1646;52.450;13.326;2023-02-18T16:26:40;0.60;;;0.60;;
3267;SDS011;1646;52.450;13.326;2023-02-18T16:31:42;0.87;;;0.70;;
3267;SDS011;1646;52.450;13.326;2023-02-18T16:36:40;0.70;;;0.60;;
3267;SDS011;1646;52.450;13.326;2023-02-18T16:41:54;0.73;;;0.73;;
3267;SDS011;1646;52.450;13.326;2023-02-18T16:46:53;0.70;;;0.60;;
3267;SDS011;1646;52.450;13.326;2023-02-18T16:51:53;0.70;;;0.70;;
3267;SDS011;1646;52.450;13.326;2023-02-18T16:56:51;0.93;;;0.60;;
3267;SDS011;1646;52.450;13.326;2023-02-18T17:01:49;0.70;;;0.70;;
3267;SDS011;1646;52.450;13.326;2023-02-18T17:06:49;0.70;;;0.70;;
3267;SDS011;1646;52.450;13.326;2023-02-18T17:11:49;0.90;;;0.60;;
3267;SDS011;1646;52.450;13.326;2023-02-18T17:16:49;0.73;;;0.70;;
3267;SDS011;1646;52.450;13.326;2023-02-18T17:21:51;0.80;;;0.80;;
3267;SDS011;1646;52.450;13.326;2023-02-18T17:26:49;0.80;;;0.80;;
3267;SDS011;1646;52.450;13.326;2023-02-18T17:31:48;2.00;;;1.13;;
3267;SDS011;1646;52.450;13.326;2023-02-18T17:36:53;0.63;;;0.63;;
3267;SDS011;1646;52.450;13.326;2023-02-18T17:41:51;2.30;;;0.77;;
3267;SDS011;1646;52.450;13.326;2023-02-18T17:46:50;1.23;;;0.87;;
3267;SDS011;1646;52.450;13.326;2023-02-18T17:51:50;1.00;;;1.00;;
3267;SDS011;1646;52.450;13.326;2023-02-18T17:56:50;1.87;;;1.00;;
3267;SDS011;1646;52.450;13.326;2023-02-18T18:01:48;1.00;;;1.00;;
3267;SDS011;1646;52.450;13.326;2023-02-18T18:06:46;1.20;;;1.10;;
3267;SDS011;1646;52.450;13.326;2023-02-18T18:11:45;1.17;;;1.10;;
3267;SDS011;1646;52.450;13.326;2023-02-18T18:16:46;1.20;;;0.80;;
3267;SDS011;1646;52.450;13.326;2023-02-18T18:21:44;0.77;;;0.77;;
3267;SDS011;1646;52.450;13.326;2023-02-18T18:26:44;1.23;;;1.10;;
3267;SDS011;1646;52.450;13.326;2023-02-18T18:31:42;1.03;;;0.93;;
3267;SDS011;1646;52.450;13.326;2023-02-18T18:36:42;1.40;;;1.00;;
3267;SDS011;1646;52.450;13.326;2023-02-18T18:41:40;1.13;;;1.03;;
3267;SDS011;1646;52.450;13.326;2023-02-18T18:46:40;1.87;;;1.00;;
3267;SDS011;1646;52.450;13.326;2023-02-18T18:51:38;1.50;;;1.40;;
3267;SDS011;1646;52.450;13.326;2023-02-18T18:56:38;1.40;;;1.40;;
3267;SDS011;1646;52.450;13.326;2023-02-18T19:01:36;2.53;;;2.33;;
3267;SDS011;1646;52.450;13.326;2023-02-18T19:06:35;5.10;;;1.83;;
3267;SDS011;1646;52.450;13.326;2023-02-18T19:11:33;3.53;;;3.13;;
3267;SDS011;1646;52.450;13.326;2023-02-18T19:16:33;2.10;;;2.00;;
3267;SDS011;1646;52.450;13.326;2023-02-18T19:21:34;2.53;;;2.43;;
3267;SDS011;1646;52.450;13.326;2023-02-18T19:26:33;2.83;;;2.63;;
3267;SDS011;1646;52.450;13.326;2023-02-18T19:31:31;4.77;;;2.80;;
3267;SDS011;1646;52.450;13.326;2023-02-18T19:36:31;2.20;;;2.10;;
3267;SDS011;1646;52.450;13.326;2023-02-18T19:41:29;2.47;;;2.27;;
3267;SDS011;1646;52.450;13.326;2023-02-18T19:46:27;2.60;;;2.40;;
3267;SDS011;1646;52.450;13.326;2023-02-18T19:51:27;3.33;;;3.07;;
3267;SDS011;1646;52.450;13.326;2023-02-18T19:56:27;4.23;;;2.90;;
3267;SDS011;1646;52.450;13.326;2023-02-18T20:01:26;4.90;;;2.80;;
3267;SDS011;1646;52.450;13.326;2023-02-18T20:06:24;2.67;;;2.47;;
3267;SDS011;1646;52.450;13.326;2023-02-18T20:11:22;8.10;;;4.03;;
3267;SDS011;1646;52.450;13.326;2023-02-18T20:16:22;4.63;;;3.80;;
3267;SDS011;1646;52.450;13.326;2023-02-18T20:21:20;3.50;;;3.20;;
3267;SDS011;1646;52.450;13.326;2023-02-18T20:26:18;4.20;;;3.67;;
3267;SDS011;1646;52.450;13.326;2023-02-18T20:31:17;3.40;;;3.10;;
3267;SDS011;1646;52.450;13.326;2023-02-18T20:36:17;3.23;;;3.00;;
3267;SDS011;1646;52.450;13.326;2023-02-18T20:41:15;3.97;;;3.30;;
3267;SDS011;1646;52.450;13.326;2023-02-18T20:46:15;3.60;;;3.23;;
3267;SDS011;1646;52.450;13.326;2023-02-18T20:51:19;3.60;;;3.30;;
3267;SDS011;1646;52.450;13.326;2023-02-18T20:56:18;4.50;;;3.70;;
3267;SDS011;1646;52.450;13.326;2023-02-18T21:01:18;3.23;;;3.00;;
3267;SDS011;1646;52.450;13.326;2023-02-18T21:06:19;4.33;;;3.63;;
3267;SDS011;1646;52.450;13.326;2023-02-18T21:11:19;6.93;;;4.30;;
3267;SDS011;1646;52.450;13.326;2023-02-18T21:16:19;4.30;;;3.90;;
3267;SDS011;1646;52.450;13.326;2023-02-18T21:21:20;3.80;;;3.40;;
3267;SDS011;1646;52.450;13.326;2023-02-18T21:26:21;3.70;;;3.40;;
3267;SDS011;1646;52.450;13.326;2023-02-18T21:31:22;3.80;;;3.40;;
3267;SDS011;1646;52.450;13.326;2023-02-18T21:36:23;5.00;;;4.00;;
3267;SDS011;1646;52.450;13.326;2023-02-18T21:41:21;5.33;;;4.17;;
3267;SDS011;1646;52.450;13.326;2023-02-18T21:46:20;3.23;;;2.93;;
3267;SDS011;1646;52.450;13.326;2023-02-18T21:51:20;4.60;;;3.53;;
3267;SDS011;1646;52.450;13.326;2023-02-18T21:56:37;4.53;;;3.20;;
3267;SDS011;1646;52.450;13.326;2023-02-18T22:01:35;3.10;;;2.43;;
3267;SDS011;1646;52.450;13.326;2023-02-18T22:06:34;4.27;;;2.70;;
3267;SDS011;1646;52.450;13.326;2023-02-18T22:11:32;4.53;;;3.20;;
3267;SDS011;1646;52.450;13.326;2023-02-18T22:16:32;3.87;;;3.17;;
3267;SDS011;1646;52.450;13.326;2023-02-18T22:21:31;3.57;;;3.20;;
3267;SDS011;1646;52.450;13.326;2023-02-18T22:26:29;3.80;;;3.37;;
3267;SDS011;1646;52.450;13.326;2023-02-18T22:31:28;4.13;;;3.00;;
3267;SDS011;1646;52.450;13.326;2023-02-18T22:36:29;3.37;;;3.07;;
3267;SDS011;1646;52.450;13.326;2023-02-18T22:41:29;4.90;;;3.20;;
3267;SDS011;1646;52.450;13.326;2023-02-18T22:46:29;3.30;;;2.73;;
3267;SDS011;1646;52.450;13.326;2023-02-18T22:51:31;4.50;;;3.63;;
3267;SDS011;1646;52.450;13.326;2023-02-18T22:56:33;3.77;;;2.80;;
3267;SDS011;1646;52.450;13.326;2023-02-18T23:01:32;6.90;;;4.77;;
3267;SDS011;1646;52.450;13.326;2023-02-18T23:06:34;3.90;;;3.50;;
3267;SDS011;1646;52.450;13.326;2023-02-18T23:11:33;4.57;;;3.00;;
3267;SDS011;1646;52.450;13.326;2023-02-18T23:16:31;6.60;;;3.07;;
3267;SDS011;1646;52.450;13.326;2023-02-18T23:21:52;3.77;;;3.37;;
3267;SDS011;1646;52.450;13.326;2023-02-18T23:26:51;5.37;;;3.40;;
3267;SDS011;1646;52.450;13.326;2023-02-18T23:31:49;3.67;;;3.30;;
3267;SDS011;1646;52.450;13.326;2023-02-18T23:36:47;3.70;;;3.23;;
3267;SDS011;1646;52.450;13.326;2023-02-18T23:41:47;3.60;;;3.03;;
3267;SDS011;1646;52.450;13.326;2023-02-18T23:46:46;4.57;;;3.37;;
3267;SDS011;1646;52.450;13.326;2023-02-18T23:51:45;4.20;;;3.10;;
3267;SDS011;1646;52.450;13.326;2023-02-18T23:56:43;3.03;;;2.70;;
